sensor_id;sensor_type;location;lat;lon;timestamp;P1;durP1;ratioP1;P2;durP2;ratioP2
46613;SDS011;32338;50.430;6.806;2023-04-21T00:02:15;12.77;;;11.23;;
46613;SDS011;32338;50.430;6.806;2023-04-21T00:04:42;13.05;;;11.43;;
46613;SDS011;32338;50.430;6.806;2023-04-21T00:07:09;13.80;;;10.93;;
46613;SDS011;32338;50.430;6.806;2023-04-21T00:09:38;14.65;;;11.10;;
46613;SDS011;32338;50.430;6.806;2023-04-21T00:12:05;15.48;;;11.02;;
46613;SDS011;32338;50.430;6.806;2023-04-21T00:14:33;12.32;;;10.98;;
46613;SDS011;32338;50.430;6.806;2023-04-21T00:17:00;14.48;;;11.45;;
46613;SDS011;32338;50.430;6.806;2023-04-21T00:19:26;12.98;;;11.07;;
46613;SDS011;32338;50.430;6.806;2023-04-21T00:21:54;11.35;;;10.15;;
46613;SDS011;32338;50.430;6.806;2023-04-21T00:24:22;12.73;;;11.35;;
46613;SDS011;32338;50.430;6.806;2023-04-21T00:26:49;13.43;;;11.68;;
46613;SDS011;32338;50.430;6.806;2023-04-21T00:29:16;13.10;;;11.73;;
46613;SDS011;32338;50.430;6.806;2023-04-21T00:31:44;13.18;;;10.77;;
46613;SDS011;32338;50.430;6.806;2023-04-21T00:34:10;11.77;;;10.57;;
46613;SDS011;32338;50.430;6.806;2023-04-21T00:36:37;12.98;;;11.30;;
46613;SDS011;32338;50.430;6.806;2023-04-21T00:39:03;13.68;;;11.43;;
46613;SDS011;32338;50.430;6.806;2023-04-21T00:41:30;17.05;;;11.48;;
46613;SDS011;32338;50.430;6.806;2023-04-21T00:44:02;13.30;;;11.57;;
46613;SDS011;32338;50.430;6.806;2023-04-21T00:46:29;15.13;;;12.15;;
46613;SDS011;32338;50.430;6.806;2023-04-21T00:48:57;14.68;;;12.18;;
46613;SDS011;32338;50.430;6.806;2023-04-21T00:51:24;16.95;;;13.10;;
46613;SDS011;32338;50.430;6.806;2023-04-21T00:53:52;17.60;;;12.20;;
46613;SDS011;32338;50.430;6.806;2023-04-21T00:56:20;15.15;;;11.15;;
46613;SDS011;32338;50.430;6.806;2023-04-21T00:58:47;15.10;;;12.55;;
46613;SDS011;32338;50.430;6.806;2023-04-21T01:01:14;15.40;;;12.70;;
46613;SDS011;32338;50.430;6.806;2023-04-21T01:03:41;17.83;;;12.55;;
46613;SDS011;32338;50.430;6.806;2023-04-21T01:06:09;14.75;;;12.13;;
46613;SDS011;32338;50.430;6.806;2023-04-21T01:08:36;17.92;;;12.73;;
46613;SDS011;32338;50.430;6.806;2023-04-21T01:11:08;15.07;;;12.70;;
46613;SDS011;32338;50.430;6.806;2023-04-21T01:13:36;19.67;;;13.32;;
46613;SDS011;32338;50.430;6.806;2023-04-21T01:16:03;18.80;;;12.65;;
46613;SDS011;32338;50.430;6.806;2023-04-21T01:18:30;16.40;;;12.10;;
46613;SDS011;32338;50.430;6.806;2023-04-21T01:20:57;19.13;;;13.63;;
46613;SDS011;32338;50.430;6.806;2023-04-21T01:23:25;19.15;;;14.35;;
46613;SDS011;32338;50.430;6.806;2023-04-21T01:25:51;16.65;;;13.13;;
46613;SDS011;32338;50.430;6.806;2023-04-21T01:28:20;18.40;;;13.38;;
46613;SDS011;32338;50.430;6.806;2023-04-21T01:30:47;16.33;;;13.07;;
46613;SDS011;32338;50.430;6.806;2023-04-21T01:33:13;20.40;;;13.80;;
46613;SDS011;32338;50.430;6.806;2023-04-21T01:35:41;19.13;;;14.45;;
46613;SDS011;32338;50.430;6.806;2023-04-21T01:38:07;18.67;;;14.60;;
46613;SDS011;32338;50.430;6.806;2023-04-21T01:40:35;25.05;;;17.02;;
46613;SDS011;32338;50.430;6.806;2023-04-21T01:43:02;22.00;;;15.63;;
46613;SDS011;32338;50.430;6.806;2023-04-21T01:45:29;23.13;;;16.60;;
46613;SDS011;32338;50.430;6.806;2023-04-21T01:47:56;21.77;;;15.98;;
46613;SDS011;32338;50.430;6.806;2023-04-21T01:50:22;22.70;;;16.73;;
46613;SDS011;32338;50.430;6.806;2023-04-21T01:52:49;24.58;;;17.08;;
46613;SDS011;32338;50.430;6.806;2023-04-21T01:55:16;21.35;;;15.27;;
46613;SDS011;32338;50.430;6.806;2023-04-21T01:57:44;23.65;;;16.92;;
46613;SDS011;32338;50.430;6.806;2023-04-21T02:00:11;20.25;;;15.45;;
46613;SDS011;32338;50.430;6.806;2023-04-21T02:02:38;22.88;;;15.98;;
46613;SDS011;32338;50.430;6.806;2023-04-21T02:05:05;23.52;;;16.00;;
46613;SDS011;32338;50.430;6.806;2023-04-21T02:07:32;25.80;;;17.52;;
46613;SDS011;32338;50.430;6.806;2023-04-21T02:09:59;23.60;;;16.40;;
46613;SDS011;32338;50.430;6.806;2023-04-21T02:12:26;25.92;;;17.95;;
46613;SDS011;32338;50.430;6.806;2023-04-21T02:14:54;28.65;;;18.48;;
46613;SDS011;32338;50.430;6.806;2023-04-21T02:17:20;27.05;;;17.95;;
46613;SDS011;32338;50.430;6.806;2023-04-21T02:19:47;30.75;;;19.70;;
46613;SDS011;32338;50.430;6.806;2023-04-21T02:22:13;30.58;;;19.17;;
46613;SDS011;32338;50.430;6.806;2023-04-21T02:24:40;26.75;;;18.23;;
46613;SDS011;32338;50.430;6.806;2023-04-21T02:27:06;28.60;;;17.40;;
46613;SDS011;32338;50.430;6.806;2023-04-21T02:29:33;27.83;;;16.88;;
46613;SDS011;32338;50.430;6.806;2023-04-21T02:32:01;25.45;;;17.60;;
46613;SDS011;32338;50.430;6.806;2023-04-21T02:34:27;39.90;;;18.27;;
46613;SDS011;32338;50.430;6.806;2023-04-21T02:36:54;27.95;;;17.48;;
46613;SDS011;32338;50.430;6.806;2023-04-21T02:39:21;26.30;;;18.13;;
46613;SDS011;32338;50.430;6.806;2023-04-21T02:41:47;25.02;;;16.63;;
46613;SDS011;32338;50.430;6.806;2023-04-21T02:44:14;29.33;;;18.65;;
46613;SDS011;32338;50.430;6.806;2023-04-21T02:46:40;28.20;;;17.35;;
46613;SDS011;32338;50.430;6.806;2023-04-21T02:49:08;24.90;;;16.88;;
46613;SDS011;32338;50.430;6.806;2023-04-21T02:51:35;31.27;;;18.92;;
46613;SDS011;32338;50.430;6.806;2023-04-21T02:54:02;27.02;;;17.83;;
46613;SDS011;32338;50.430;6.806;2023-04-21T02:56:29;28.17;;;18.15;;
46613;SDS011;32338;50.430;6.806;2023-04-21T02:58:58;28.27;;;18.30;;
46613;SDS011;32338;50.430;6.806;2023-04-21T03:01:25;28.67;;;18.42;;
46613;SDS011;32338;50.430;6.806;2023-04-21T03:03:51;26.45;;;17.42;;
46613;SDS011;32338;50.430;6.806;2023-04-21T03:06:19;38.20;;;19.25;;
46613;SDS011;32338;50.430;6.806;2023-04-21T03:08:46;28.55;;;18.08;;
46613;SDS011;32338;50.430;6.806;2023-04-21T03:11:12;25.23;;;17.50;;
46613;SDS011;32338;50.430;6.806;2023-04-21T03:13:39;25.13;;;17.13;;
46613;SDS011;32338;50.430;6.806;2023-04-21T03:16:06;26.63;;;17.15;;
46613;SDS011;32338;50.430;6.806;2023-04-21T03:18:33;25.50;;;17.75;;
46613;SDS011;32338;50.430;6.806;2023-04-21T03:21:00;22.77;;;15.50;;
46613;SDS011;32338;50.430;6.806;2023-04-21T03:23:28;24.65;;;16.50;;
46613;SDS011;32338;50.430;6.806;2023-04-21T03:25:54;23.42;;;16.27;;
46613;SDS011;32338;50.430;6.806;2023-04-21T03:28:21;23.88;;;16.65;;
46613;SDS011;32338;50.430;6.806;2023-04-21T03:30:48;26.95;;;17.45;;
46613;SDS011;32338;50.430;6.806;2023-04-21T03:33:14;24.05;;;16.90;;
46613;SDS011;32338;50.430;6.806;2023-04-21T03:35:41;27.55;;;16.02;;
46613;SDS011;32338;50.430;6.806;2023-04-21T03:38:07;22.63;;;14.38;;
46613;SDS011;32338;50.430;6.806;2023-04-21T03:40:35;21.13;;;15.20;;
46613;SDS011;32338;50.430;6.806;2023-04-21T03:43:02;21.15;;;15.27;;
46613;SDS011;32338;50.430;6.806;2023-04-21T03:45:28;21.48;;;14.95;;
46613;SDS011;32338;50.430;6.806;2023-04-21T03:47:55;23.15;;;15.32;;
46613;SDS011;32338;50.430;6.806;2023-04-21T03:50:22;22.25;;;15.25;;
46613;SDS011;32338;50.430;6.806;2023-04-21T03:52:49;22.95;;;15.45;;
46613;SDS011;32338;50.430;6.806;2023-04-21T03:55:15;22.10;;;15.63;;
46613;SDS011;32338;50.430;6.806;2023-04-21T03:57:43;25.45;;;15.75;;
46613;SDS011;32338;50.430;6.806;2023-04-21T04:00:10;24.77;;;16.67;;
46613;SDS011;32338;50.430;6.806;2023-04-21T04:02:38;24.17;;;15.75;;
46613;SDS011;32338;50.430;6.806;2023-04-21T04:05:05;24.63;;;15.57;;
46613;SDS011;32338;50.430;6.806;2023-04-21T04:07:32;25.73;;;15.75;;
46613;SDS011;32338;50.430;6.806;2023-04-21T04:09:59;24.65;;;16.15;;
46613;SDS011;32338;50.430;6.806;2023-04-21T04:12:26;24.38;;;15.13;;
46613;SDS011;32338;50.430;6.806;2023-04-21T04:14:53;24.48;;;16.75;;
46613;SDS011;32338;50.430;6.806;2023-04-21T04:17:20;26.23;;;16.58;;
46613;SDS011;32338;50.430;6.806;2023-04-21T04:19:47;23.77;;;15.50;;
46613;SDS011;32338;50.430;6.806;2023-04-21T04:22:13;21.63;;;15.88;;
46613;SDS011;32338;50.430;6.806;2023-04-21T04:24:40;23.70;;;15.57;;
46613;SDS011;32338;50.430;6.806;2023-04-21T04:27:09;25.90;;;16.58;;
46613;SDS011;32338;50.430;6.806;2023-04-21T04:29:37;27.45;;;17.23;;
46613;SDS011;32338;50.430;6.806;2023-04-21T04:32:06;23.73;;;16.90;;
46613;SDS011;32338;50.430;6.806;2023-04-21T04:34:33;21.92;;;15.20;;
46613;SDS011;32338;50.430;6.806;2023-04-21T04:37:01;25.58;;;16.27;;
46613;SDS011;32338;50.430;6.806;2023-04-21T04:39:28;28.92;;;17.80;;
46613;SDS011;32338;50.430;6.806;2023-04-21T04:41:55;27.48;;;17.55;;
46613;SDS011;32338;50.430;6.806;2023-04-21T04:44:22;29.85;;;18.30;;
46613;SDS011;32338;50.430;6.806;2023-04-21T04:46:49;25.73;;;17.58;;
46613;SDS011;32338;50.430;6.806;2023-04-21T04:49:17;24.70;;;16.13;;
46613;SDS011;32338;50.430;6.806;2023-04-21T04:51:44;26.95;;;18.38;;
46613;SDS011;32338;50.430;6.806;2023-04-21T04:54:11;29.85;;;19.15;;
46613;SDS011;32338;50.430;6.806;2023-04-21T04:56:37;28.70;;;19.40;;
46613;SDS011;32338;50.430;6.806;2023-04-21T04:59:04;29.48;;;19.23;;
46613;SDS011;32338;50.430;6.806;2023-04-21T05:01:31;29.08;;;19.15;;
46613;SDS011;32338;50.430;6.806;2023-04-21T05:03:57;27.70;;;17.27;;
46613;SDS011;32338;50.430;6.806;2023-04-21T05:06:25;33.30;;;17.90;;
46613;SDS011;32338;50.430;6.806;2023-04-21T05:08:53;28.55;;;18.02;;
46613;SDS011;32338;50.430;6.806;2023-04-21T05:11:20;26.08;;;16.33;;
46613;SDS011;32338;50.430;6.806;2023-04-21T05:13:47;27.15;;;17.33;;
46613;SDS011;32338;50.430;6.806;2023-04-21T05:16:13;23.73;;;16.75;;
46613;SDS011;32338;50.430;6.806;2023-04-21T05:18:40;28.75;;;17.98;;
46613;SDS011;32338;50.430;6.806;2023-04-21T05:21:06;28.13;;;17.58;;
46613;SDS011;32338;50.430;6.806;2023-04-21T05:23:34;26.98;;;17.83;;
46613;SDS011;32338;50.430;6.806;2023-04-21T05:26:01;27.27;;;16.45;;
46613;SDS011;32338;50.430;6.806;2023-04-21T05:28:27;23.95;;;16.58;;
46613;SDS011;32338;50.430;6.806;2023-04-21T05:30:55;26.38;;;17.02;;
46613;SDS011;32338;50.430;6.806;2023-04-21T05:33:22;21.77;;;15.82;;
46613;SDS011;32338;50.430;6.806;2023-04-21T05:35:50;27.63;;;19.35;;
46613;SDS011;32338;50.430;6.806;2023-04-21T05:38:17;20.80;;;16.38;;
46613;SDS011;32338;50.430;6.806;2023-04-21T05:40:45;23.13;;;15.55;;
46613;SDS011;32338;50.430;6.806;2023-04-21T05:43:18;18.33;;;14.40;;
46613;SDS011;32338;50.430;6.806;2023-04-21T05:45:44;19.95;;;14.35;;
46613;SDS011;32338;50.430;6.806;2023-04-21T05:48:11;21.00;;;15.13;;
46613;SDS011;32338;50.430;6.806;2023-04-21T05:50:38;25.92;;;15.77;;
46613;SDS011;32338;50.430;6.806;2023-04-21T05:53:04;21.25;;;15.65;;
46613;SDS011;32338;50.430;6.806;2023-04-21T05:55:32;24.33;;;16.35;;
46613;SDS011;32338;50.430;6.806;2023-04-21T05:58:00;24.20;;;16.23;;
46613;SDS011;32338;50.430;6.806;2023-04-21T06:00:28;25.77;;;18.25;;
46613;SDS011;32338;50.430;6.806;2023-04-21T06:02:55;25.13;;;17.08;;
46613;SDS011;32338;50.430;6.806;2023-04-21T06:05:21;24.00;;;16.55;;
46613;SDS011;32338;50.430;6.806;2023-04-21T06:07:48;26.73;;;17.45;;
46613;SDS011;32338;50.430;6.806;2023-04-21T06:10:15;26.20;;;17.70;;
46613;SDS011;32338;50.430;6.806;2023-04-21T06:12:42;27.88;;;18.20;;
46613;SDS011;32338;50.430;6.806;2023-04-21T06:15:10;25.27;;;17.02;;
46613;SDS011;32338;50.430;6.806;2023-04-21T06:17:37;24.10;;;17.10;;
46613;SDS011;32338;50.430;6.806;2023-04-21T06:20:04;26.95;;;17.90;;
46613;SDS011;32338;50.430;6.806;2023-04-21T06:22:33;26.20;;;18.02;;
46613;SDS011;32338;50.430;6.806;2023-04-21T06:24:59;24.00;;;16.27;;
46613;SDS011;32338;50.430;6.806;2023-04-21T06:27:26;22.38;;;16.80;;
46613;SDS011;32338;50.430;6.806;2023-04-21T06:29:53;21.00;;;15.43;;
46613;SDS011;32338;50.430;6.806;2023-04-21T06:32:21;22.33;;;15.68;;
46613;SDS011;32338;50.430;6.806;2023-04-21T06:34:47;22.63;;;16.40;;
46613;SDS011;32338;50.430;6.806;2023-04-21T06:37:14;24.55;;;17.08;;
46613;SDS011;32338;50.430;6.806;2023-04-21T06:39:41;23.30;;;15.93;;
46613;SDS011;32338;50.430;6.806;2023-04-21T06:42:07;23.55;;;17.52;;
46613;SDS011;32338;50.430;6.806;2023-04-21T06:44:34;24.40;;;16.45;;
46613;SDS011;32338;50.430;6.806;2023-04-21T06:47:02;22.67;;;16.67;;
46613;SDS011;32338;50.430;6.806;2023-04-21T06:49:30;23.13;;;17.38;;
46613;SDS011;32338;50.430;6.806;2023-04-21T06:51:58;23.27;;;16.83;;
46613;SDS011;32338;50.430;6.806;2023-04-21T06:54:24;26.55;;;16.35;;
46613;SDS011;32338;50.430;6.806;2023-04-21T06:56:51;24.55;;;16.60;;
46613;SDS011;32338;50.430;6.806;2023-04-21T06:59:17;27.35;;;17.35;;
46613;SDS011;32338;50.430;6.806;2023-04-21T07:01:44;25.90;;;17.85;;
46613;SDS011;32338;50.430;6.806;2023-04-21T07:04:13;24.80;;;18.92;;
46613;SDS011;32338;50.430;6.806;2023-04-21T07:06:41;27.20;;;18.73;;
46613;SDS011;32338;50.430;6.806;2023-04-21T07:09:07;26.38;;;18.70;;
46613;SDS011;32338;50.430;6.806;2023-04-21T07:11:34;26.50;;;17.08;;
46613;SDS011;32338;50.430;6.806;2023-04-21T07:14:01;23.73;;;17.00;;
46613;SDS011;32338;50.430;6.806;2023-04-21T07:16:27;22.73;;;16.67;;
46613;SDS011;32338;50.430;6.806;2023-04-21T07:18:54;21.65;;;15.68;;
46613;SDS011;32338;50.430;6.806;2023-04-21T07:21:21;20.73;;;15.52;;
46613;SDS011;32338;50.430;6.806;2023-04-21T07:23:49;21.63;;;15.60;;
46613;SDS011;32338;50.430;6.806;2023-04-21T07:26:15;19.13;;;14.93;;
46613;SDS011;32338;50.430;6.806;2023-04-21T07:28:42;19.83;;;15.10;;
46613;SDS011;32338;50.430;6.806;2023-04-21T07:31:09;15.52;;;12.98;;
46613;SDS011;32338;50.430;6.806;2023-04-21T07:33:35;16.73;;;13.45;;
46613;SDS011;32338;50.430;6.806;2023-04-21T07:36:02;15.07;;;12.60;;
46613;SDS011;32338;50.430;6.806;2023-04-21T07:38:29;16.05;;;12.75;;
46613;SDS011;32338;50.430;6.806;2023-04-21T07:40:57;14.32;;;12.65;;
46613;SDS011;32338;50.430;6.806;2023-04-21T07:43:24;16.23;;;13.52;;
46613;SDS011;32338;50.430;6.806;2023-04-21T07:45:50;16.25;;;12.25;;
46613;SDS011;32338;50.430;6.806;2023-04-21T07:48:17;14.30;;;11.77;;
46613;SDS011;32338;50.430;6.806;2023-04-21T07:50:44;15.60;;;12.25;;
46613;SDS011;32338;50.430;6.806;2023-04-21T07:53:10;13.98;;;12.48;;
46613;SDS011;32338;50.430;6.806;2023-04-21T07:55:37;11.77;;;10.57;;
46613;SDS011;32338;50.430;6.806;2023-04-21T07:58:05;12.20;;;10.90;;
46613;SDS011;32338;50.430;6.806;2023-04-21T08:00:34;12.75;;;10.38;;
46613;SDS011;32338;50.430;6.806;2023-04-21T08:03:00;15.23;;;11.25;;
46613;SDS011;32338;50.430;6.806;2023-04-21T08:05:27;12.02;;;10.52;;
46613;SDS011;32338;50.430;6.806;2023-04-21T08:07:55;11.00;;;9.90;;
46613;SDS011;32338;50.430;6.806;2023-04-21T08:10:21;11.60;;;9.75;;
46613;SDS011;32338;50.430;6.806;2023-04-21T08:12:48;13.55;;;10.20;;
46613;SDS011;32338;50.430;6.806;2023-04-21T08:15:17;12.00;;;10.55;;
46613;SDS011;32338;50.430;6.806;2023-04-21T08:17:43;12.38;;;10.35;;
46613;SDS011;32338;50.430;6.806;2023-04-21T08:20:11;11.43;;;10.15;;
46613;SDS011;32338;50.430;6.806;2023-04-21T08:22:38;14.50;;;10.93;;
46613;SDS011;32338;50.430;6.806;2023-04-21T08:25:05;13.10;;;10.82;;
46613;SDS011;32338;50.430;6.806;2023-04-21T08:27:32;12.73;;;10.77;;
46613;SDS011;32338;50.430;6.806;2023-04-21T08:29:59;12.40;;;10.32;;
46613;SDS011;32338;50.430;6.806;2023-04-21T08:32:27;13.30;;;10.68;;
46613;SDS011;32338;50.430;6.806;2023-04-21T08:34:53;13.25;;;10.10;;
46613;SDS011;32338;50.430;6.806;2023-04-21T08:37:20;14.00;;;10.02;;
46613;SDS011;32338;50.430;6.806;2023-04-21T08:39:47;14.77;;;9.27;;
46613;SDS011;32338;50.430;6.806;2023-04-21T08:42:15;12.63;;;8.93;;
46613;SDS011;32338;50.430;6.806;2023-04-21T08:44:42;10.45;;;9.43;;
46613;SDS011;32338;50.430;6.806;2023-04-21T08:47:10;10.60;;;9.50;;
46613;SDS011;32338;50.430;6.806;2023-04-21T08:49:39;12.65;;;9.98;;
46613;SDS011;32338;50.430;6.806;2023-04-21T08:52:09;10.10;;;9.13;;
46613;SDS011;32338;50.430;6.806;2023-04-21T08:54:37;14.40;;;9.50;;
46613;SDS011;32338;50.430;6.806;2023-04-21T08:57:04;10.07;;;8.95;;
46613;SDS011;32338;50.430;6.806;2023-04-21T08:59:30;10.50;;;9.50;;
46613;SDS011;32338;50.430;6.806;2023-04-21T09:02:10;10.70;;;8.07;;
46613;SDS011;32338;50.430;6.806;2023-04-21T09:04:40;11.35;;;10.18;;
46613;SDS011;32338;50.430;6.806;2023-04-21T09:07:08;9.68;;;8.68;;
46613;SDS011;32338;50.430;6.806;2023-04-21T09:09:50;10.88;;;8.82;;
46613;SDS011;32338;50.430;6.806;2023-04-21T09:12:17;9.02;;;8.15;;
46613;SDS011;32338;50.430;6.806;2023-04-21T09:14:44;11.02;;;9.48;;
46613;SDS011;32338;50.430;6.806;2023-04-21T09:17:11;11.40;;;9.10;;
46613;SDS011;32338;50.430;6.806;2023-04-21T09:19:37;11.02;;;9.80;;
46613;SDS011;32338;50.430;6.806;2023-04-21T09:22:05;9.40;;;8.48;;
46613;SDS011;32338;50.430;6.806;2023-04-21T09:24:32;14.93;;;10.15;;
46613;SDS011;32338;50.430;6.806;2023-04-21T09:27:00;10.57;;;9.57;;
46613;SDS011;32338;50.430;6.806;2023-04-21T09:29:28;9.20;;;8.27;;
46613;SDS011;32338;50.430;6.806;2023-04-21T09:31:54;11.05;;;9.93;;
46613;SDS011;32338;50.430;6.806;2023-04-21T09:34:21;10.98;;;8.68;;
46613;SDS011;32338;50.430;6.806;2023-04-21T09:36:53;9.20;;;8.40;;
46613;SDS011;32338;50.430;6.806;2023-04-21T09:39:25;9.32;;;8.43;;
46613;SDS011;32338;50.430;6.806;2023-04-21T09:41:54;9.10;;;8.30;;
46613;SDS011;32338;50.430;6.806;2023-04-21T09:44:21;9.85;;;8.93;;
46613;SDS011;32338;50.430;6.806;2023-04-21T09:46:49;11.50;;;9.85;;
46613;SDS011;32338;50.430;6.806;2023-04-21T09:49:16;9.25;;;8.40;;
46613;SDS011;32338;50.430;6.806;2023-04-21T09:51:43;9.35;;;8.45;;
46613;SDS011;32338;50.430;6.806;2023-04-21T09:54:11;8.43;;;7.07;;
46613;SDS011;32338;50.430;6.806;2023-04-21T09:56:42;8.30;;;7.53;;
46613;SDS011;32338;50.430;6.806;2023-04-21T09:59:14;8.20;;;7.38;;
46613;SDS011;32338;50.430;6.806;2023-04-21T10:01:45;8.18;;;7.22;;
46613;SDS011;32338;50.430;6.806;2023-04-21T10:04:14;10.35;;;8.32;;
46613;SDS011;32338;50.430;6.806;2023-04-21T10:06:43;10.10;;;8.10;;
46613;SDS011;32338;50.430;6.806;2023-04-21T10:09:10;9.55;;;8.43;;
46613;SDS011;32338;50.430;6.806;2023-04-21T10:11:39;8.80;;;7.90;;
46613;SDS011;32338;50.430;6.806;2023-04-21T10:14:08;7.07;;;6.40;;
46613;SDS011;32338;50.430;6.806;2023-04-21T10:16:35;10.00;;;8.00;;
46613;SDS011;32338;50.430;6.806;2023-04-21T10:19:04;8.18;;;7.43;;
46613;SDS011;32338;50.430;6.806;2023-04-21T10:21:48;8.07;;;7.03;;
46613;SDS011;32338;50.430;6.806;2023-04-21T10:24:15;8.18;;;6.63;;
46613;SDS011;32338;50.430;6.806;2023-04-21T10:26:42;7.80;;;6.90;;
46613;SDS011;32338;50.430;6.806;2023-04-21T10:29:10;9.13;;;6.50;;
46613;SDS011;32338;50.430;6.806;2023-04-21T10:31:39;7.75;;;6.97;;
46613;SDS011;32338;50.430;6.806;2023-04-21T10:34:20;7.20;;;6.50;;
46613;SDS011;32338;50.430;6.806;2023-04-21T10:36:50;6.43;;;5.82;;
46613;SDS011;32338;50.430;6.806;2023-04-21T10:39:32;6.78;;;6.22;;
46613;SDS011;32338;50.430;6.806;2023-04-21T10:45:00;7.63;;;6.20;;
46613;SDS011;32338;50.430;6.806;2023-04-21T10:47:46;6.07;;;5.50;;
46613;SDS011;32338;50.430;6.806;2023-04-21T10:50:16;6.47;;;5.97;;
46613;SDS011;32338;50.430;6.806;2023-04-21T10:52:45;6.70;;;6.05;;
46613;SDS011;32338;50.430;6.806;2023-04-21T10:55:17;5.90;;;5.50;;
46613;SDS011;32338;50.430;6.806;2023-04-21T10:57:45;6.43;;;5.82;;
46613;SDS011;32338;50.430;6.806;2023-04-21T11:00:17;5.80;;;5.30;;
46613;SDS011;32338;50.430;6.806;2023-04-21T11:02:54;5.05;;;4.50;;
46613;SDS011;32338;50.430;6.806;2023-04-21T11:05:26;6.00;;;5.50;;
46613;SDS011;32338;50.430;6.806;2023-04-21T11:08:02;5.60;;;5.10;;
46613;SDS011;32338;50.430;6.806;2023-04-21T11:10:42;5.18;;;4.68;;
46613;SDS011;32338;50.430;6.806;2023-04-21T11:13:14;4.80;;;4.35;;
46613;SDS011;32338;50.430;6.806;2023-04-21T11:15:42;3.97;;;3.67;;
46613;SDS011;32338;50.430;6.806;2023-04-21T11:18:30;3.97;;;3.67;;
46613;SDS011;32338;50.430;6.806;2023-04-21T11:21:05;3.40;;;3.20;;
46613;SDS011;32338;50.430;6.806;2023-04-21T11:23:32;4.38;;;4.07;;
46613;SDS011;32338;50.430;6.806;2023-04-21T11:25:59;5.68;;;4.32;;
46613;SDS011;32338;50.430;6.806;2023-04-21T11:28:25;4.38;;;3.90;;
46613;SDS011;32338;50.430;6.806;2023-04-21T11:30:53;4.68;;;4.28;;
46613;SDS011;32338;50.430;6.806;2023-04-21T11:33:20;4.05;;;3.75;;
46613;SDS011;32338;50.430;6.806;2023-04-21T11:35:46;3.70;;;3.40;;
46613;SDS011;32338;50.430;6.806;2023-04-21T11:38:15;4.38;;;3.97;;
46613;SDS011;32338;50.430;6.806;2023-04-21T11:40:43;4.30;;;3.90;;
46613;SDS011;32338;50.430;6.806;2023-04-21T11:43:11;3.90;;;3.50;;
46613;SDS011;32338;50.430;6.806;2023-04-21T11:45:39;4.47;;;2.95;;
46613;SDS011;32338;50.430;6.806;2023-04-21T11:48:13;3.40;;;3.10;;
46613;SDS011;32338;50.430;6.806;2023-04-21T11:50:45;3.50;;;3.20;;
46613;SDS011;32338;50.430;6.806;2023-04-21T11:53:12;3.70;;;3.00;;
46613;SDS011;32338;50.430;6.806;2023-04-21T11:55:40;3.95;;;3.10;;
46613;SDS011;32338;50.430;6.806;2023-04-21T11:58:08;2.58;;;2.38;;
46613;SDS011;32338;50.430;6.806;2023-04-21T12:00:36;3.03;;;2.72;;
46613;SDS011;32338;50.430;6.806;2023-04-21T12:03:07;3.50;;;3.20;;
46613;SDS011;32338;50.430;6.806;2023-04-21T12:05:35;2.38;;;2.20;;
46613;SDS011;32338;50.430;6.806;2023-04-21T12:08:02;2.88;;;2.58;;
46613;SDS011;32338;50.430;6.806;2023-04-21T12:10:30;3.42;;;3.13;;
46613;SDS011;32338;50.430;6.806;2023-04-21T12:12:57;3.00;;;2.33;;
46613;SDS011;32338;50.430;6.806;2023-04-21T12:15:24;2.45;;;2.25;;
46613;SDS011;32338;50.430;6.806;2023-04-21T12:17:51;3.35;;;3.05;;
46613;SDS011;32338;50.430;6.806;2023-04-21T12:20:19;2.92;;;2.72;;
46613;SDS011;32338;50.430;6.806;2023-04-21T12:22:48;3.30;;;3.00;;
46613;SDS011;32338;50.430;6.806;2023-04-21T12:25:16;4.57;;;2.72;;
46613;SDS011;32338;50.430;6.806;2023-04-21T12:27:46;3.67;;;3.28;;
46613;SDS011;32338;50.430;6.806;2023-04-21T12:30:13;5.47;;;2.35;;
46613;SDS011;32338;50.430;6.806;2023-04-21T12:32:40;2.42;;;2.22;;
46613;SDS011;32338;50.430;6.806;2023-04-21T12:35:07;3.55;;;3.25;;
46613;SDS011;32338;50.430;6.806;2023-04-21T12:37:34;2.78;;;2.58;;
46613;SDS011;32338;50.430;6.806;2023-04-21T12:40:02;3.22;;;2.92;;
46613;SDS011;32338;50.430;6.806;2023-04-21T12:42:31;2.97;;;2.78;;
46613;SDS011;32338;50.430;6.806;2023-04-21T12:44:57;2.97;;;2.72;;
46613;SDS011;32338;50.430;6.806;2023-04-21T12:47:24;3.92;;;2.60;;
46613;SDS011;32338;50.430;6.806;2023-04-21T12:49:51;3.00;;;2.80;;
46613;SDS011;32338;50.430;6.806;2023-04-21T12:52:17;2.90;;;2.28;;
46613;SDS011;32338;50.430;6.806;2023-04-21T12:54:44;3.55;;;2.05;;
46613;SDS011;32338;50.430;6.806;2023-04-21T12:57:12;2.65;;;2.45;;
46613;SDS011;32338;50.430;6.806;2023-04-21T12:59:39;3.20;;;2.22;;
46613;SDS011;32338;50.430;6.806;2023-04-21T13:02:06;2.70;;;2.50;;
46613;SDS011;32338;50.430;6.806;2023-04-21T13:04:33;3.58;;;2.38;;
46613;SDS011;32338;50.430;6.806;2023-04-21T13:07:00;2.60;;;2.40;;
46613;SDS011;32338;50.430;6.806;2023-04-21T13:09:27;2.47;;;2.28;;
46613;SDS011;32338;50.430;6.806;2023-04-21T13:11:53;2.35;;;2.15;;
46613;SDS011;32338;50.430;6.806;2023-04-21T13:14:21;2.05;;;1.90;;
46613;SDS011;32338;50.430;6.806;2023-04-21T13:16:48;3.50;;;2.80;;
46613;SDS011;32338;50.430;6.806;2023-04-21T13:19:14;2.13;;;1.92;;
46613;SDS011;32338;50.430;6.806;2023-04-21T13:21:41;2.30;;;1.80;;
46613;SDS011;32338;50.430;6.806;2023-04-21T13:24:08;2.17;;;1.98;;
46613;SDS011;32338;50.430;6.806;2023-04-21T13:26:34;2.13;;;1.90;;
46613;SDS011;32338;50.430;6.806;2023-04-21T13:29:01;6.43;;;2.15;;
46613;SDS011;32338;50.430;6.806;2023-04-21T13:31:29;2.20;;;2.00;;
46613;SDS011;32338;50.430;6.806;2023-04-21T13:33:57;4.45;;;1.65;;
46613;SDS011;32338;50.430;6.806;2023-04-21T13:36:23;2.63;;;2.20;;
46613;SDS011;32338;50.430;6.806;2023-04-21T13:38:50;2.00;;;1.80;;
46613;SDS011;32338;50.430;6.806;2023-04-21T13:41:17;2.70;;;2.50;;
46613;SDS011;32338;50.430;6.806;2023-04-21T13:43:44;3.03;;;2.40;;
46613;SDS011;32338;50.430;6.806;2023-04-21T13:46:11;1.88;;;1.73;;
46613;SDS011;32338;50.430;6.806;2023-04-21T13:48:40;2.00;;;1.80;;
46613;SDS011;32338;50.430;6.806;2023-04-21T13:51:07;2.80;;;1.98;;
46613;SDS011;32338;50.430;6.806;2023-04-21T13:53:33;1.77;;;1.55;;
46613;SDS011;32338;50.430;6.806;2023-04-21T13:56:00;4.45;;;2.13;;
46613;SDS011;32338;50.430;6.806;2023-04-21T13:58:27;3.50;;;2.10;;
46613;SDS011;32338;50.430;6.806;2023-04-21T14:00:54;2.30;;;2.10;;
46613;SDS011;32338;50.430;6.806;2023-04-21T14:03:21;3.40;;;2.88;;
46613;SDS011;32338;50.430;6.806;2023-04-21T14:05:49;2.47;;;2.28;;
46613;SDS011;32338;50.430;6.806;2023-04-21T14:08:15;2.33;;;2.13;;
46613;SDS011;32338;50.430;6.806;2023-04-21T14:10:42;2.67;;;1.65;;
46613;SDS011;32338;50.430;6.806;2023-04-21T14:13:09;1.30;;;1.10;;
46613;SDS011;32338;50.430;6.806;2023-04-21T14:15:35;3.40;;;1.48;;
46613;SDS011;32338;50.430;6.806;2023-04-21T14:18:02;1.40;;;1.27;;
46613;SDS011;32338;50.430;6.806;2023-04-21T14:20:29;2.47;;;1.20;;
46613;SDS011;32338;50.430;6.806;2023-04-21T14:22:57;1.67;;;1.58;;
46613;SDS011;32338;50.430;6.806;2023-04-21T14:25:24;1.40;;;1.30;;
46613;SDS011;32338;50.430;6.806;2023-04-21T14:27:50;1.30;;;1.20;;
46613;SDS011;32338;50.430;6.806;2023-04-21T14:30:17;1.20;;;1.10;;
46613;SDS011;32338;50.430;6.806;2023-04-21T14:32:44;1.52;;;1.30;;
46613;SDS011;32338;50.430;6.806;2023-04-21T14:35:10;1.35;;;1.25;;
46613;SDS011;32338;50.430;6.806;2023-04-21T14:37:37;1.38;;;1.27;;